createdAt,value
2023-01-02T00:00:08.435Z,100470.19
2023-01-02T00:02:36.761Z,100471.09
2023-01-02T00:05:05.521Z,100476.31
2023-01-02T00:07:33.728Z,100461.47
2023-01-02T00:10:03.429Z,100457.97
2023-01-02T00:12:31.629Z,100466.72
2023-01-02T00:14:59.877Z,100466.69
2023-01-02T00:17:28.045Z,100464.97
2023-01-02T00:19:56.531Z,100470.22
2023-01-02T00:22:25.175Z,100472.84
2023-01-02T00:24:53.357Z,100471.09
2023-01-02T00:27:22.866Z,100474.56
2023-01-02T00:29:51.091Z,100471.97
2023-01-02T00:32:19.401Z,100473.69
2023-01-02T00:34:47.808Z,100463.22
2023-01-02T00:37:16.061Z,100475.47
2023-01-02T00:39:44.370Z,100471.94
2023-01-02T00:42:12.516Z,100468.47
2023-01-02T00:44:42.164Z,100468.47
2023-01-02T00:47:10.267Z,100470.22
2023-01-02T00:49:38.467Z,100464.97
2023-01-02T00:52:06.589Z,100462.34
2023-01-02T00:54:34.988Z,100460.59
2023-01-02T00:57:03.044Z,100466.72
2023-01-02T00:59:31.276Z,100456.25
2023-01-02T01:02:01.111Z,100463.22
2023-01-02T01:04:29.277Z,100461.47
2023-01-02T01:06:57.450Z,100457.09
2023-01-02T01:09:25.846Z,100453.59
2023-01-02T01:11:54.131Z,100454.47
2023-01-02T01:14:23.831Z,100454.50
2023-01-02T01:16:52.017Z,100452.72
2023-01-02T01:19:21.594Z,100461.47
2023-01-02T01:21:49.855Z,100454.50
2023-01-02T01:24:18.222Z,100446.63
2023-01-02T01:26:46.512Z,100437.00
2023-01-02T01:29:14.933Z,100438.75
2023-01-02T01:31:43.326Z,100432.63
2023-01-02T01:34:12.746Z,100443.97
2023-01-02T01:36:42.554Z,100436.13
2023-01-02T01:39:10.886Z,100428.25
2023-01-02T01:41:39.195Z,100423.91
2023-01-02T01:44:40.614Z,100431.75
2023-01-02T01:47:17.222Z,100430.88
2023-01-02T01:49:47.509Z,100426.50
2023-01-02T01:52:21.966Z,100423.00
2023-01-02T01:54:56.573Z,100430.00
2023-01-02T01:57:29.609Z,100443.97
2023-01-02T02:00:00.055Z,100447.47
2023-01-02T02:02:30.140Z,100438.75
2023-01-02T02:05:01.922Z,100450.97
2023-01-02T02:07:32.592Z,100447.47
2023-01-02T02:10:05.459Z,100448.34
2023-01-02T02:12:35.132Z,100452.72
2023-01-02T02:15:03.563Z,100440.47
2023-01-02T02:17:41.553Z,100455.34
2023-01-02T02:20:29.830Z,100433.50
2023-01-02T02:23:41.224Z,100437.00
2023-01-02T02:26:45.720Z,100457.97
2023-01-02T02:29:42.708Z,100434.38
2023-01-02T02:32:22.207Z,100423.88
2023-01-02T02:34:59.727Z,100441.38
2023-01-02T02:37:38.018Z,100443.97
2023-01-02T02:40:17.675Z,100447.50
2023-01-02T02:42:58.308Z,100449.22
2023-01-02T02:45:39.318Z,100433.50
2023-01-02T02:48:14.542Z,100454.47
2023-01-02T02:50:50.330Z,100450.97
2023-01-02T02:53:23.674Z,100442.25
2023-01-02T02:55:55.361Z,100431.72
2023-01-02T02:58:25.873Z,100433.47
2023-01-02T03:01:03.914Z,100436.97
2023-01-02T03:03:33.505Z,100438.72
2023-01-02T03:06:14.270Z,100447.44
2023-01-02T03:08:46.399Z,100443.97
2023-01-02T03:11:16.709Z,100443.97
2023-01-02T03:13:52.608Z,100450.94
2023-01-02T03:16:28.230Z,100447.44
2023-01-02T03:19:03.565Z,100445.72
2023-01-02T03:21:37.466Z,100449.22
2023-01-02T03:24:09.258Z,100443.94
2023-01-02T03:26:42.011Z,100447.47
2023-01-02T03:29:30.342Z,100432.59
2023-01-02T03:32:01.579Z,100436.97
2023-01-02T03:34:33.770Z,100443.06
2023-01-02T03:37:06.691Z,100443.06
2023-01-02T03:39:38.985Z,100444.81
2023-01-02T03:42:11.624Z,100444.84
2023-01-02T03:44:45.703Z,100450.06
2023-01-02T03:47:26.100Z,100450.06
2023-01-02T03:49:58.947Z,100440.44
2023-01-02T03:52:27.248Z,100442.22
2023-01-02T03:54:57.481Z,100436.97
2023-01-02T03:57:35.296Z,100424.75
2023-01-02T04:00:09.011Z,100434.31
2023-01-02T04:02:41.218Z,100416.00
2023-01-02T04:05:19.779Z,100430.00
2023-01-02T04:07:56.092Z,100423.88
2023-01-02T04:10:25.477Z,100422.97
2023-01-02T04:12:56.350Z,100428.22
2023-01-02T04:15:28.637Z,100416.91
2023-01-02T04:18:01.411Z,100426.50
2023-01-02T04:20:34.785Z,100430.00
2023-01-02T04:23:07.063Z,100430.00
2023-01-02T04:25:43.189Z,100419.53
2023-01-02T04:28:18.522Z,100438.75
2023-01-02T04:30:52.139Z,100423.91
2023-01-02T04:33:23.544Z,100431.75
2023-01-02T04:35:53.097Z,100430.88
2023-01-02T04:38:21.353Z,100428.28
2023-01-02T04:40:50.509Z,100427.38
2023-01-02T04:43:21.367Z,100429.16
2023-01-02T04:45:50.419Z,100439.59
2023-01-02T04:48:19.093Z,100435.25
2023-01-02T04:50:49.071Z,100436.13
2023-01-02T04:53:18.766Z,100426.50
2023-01-02T04:55:46.981Z,100417.81
2023-01-02T04:58:15.438Z,100417.78
2023-01-02T05:00:43.732Z,100437.00
2023-01-02T05:03:11.839Z,100438.75
2023-01-02T05:05:40.140Z,100437.00
2023-01-02T05:08:13.896Z,100435.25
2023-01-02T05:10:45.588Z,100430.00
2023-01-02T05:13:13.846Z,100427.38
2023-01-02T05:15:42.128Z,100426.50
2023-01-02T05:18:10.190Z,100424.78
2023-01-02T05:20:38.570Z,100423.03
2023-01-02T05:23:24.031Z,100437.03
2023-01-02T05:25:53.669Z,100430.00
2023-01-02T05:28:21.760Z,100434.38
2023-01-02T05:30:50.571Z,100428.28
2023-01-02T05:33:18.836Z,100423.03
2023-01-02T05:35:48.247Z,100403.81
2023-01-02T05:38:16.669Z,100413.44
2023-01-02T05:40:44.998Z,100409.91
2023-01-02T05:43:14.602Z,100407.28
2023-01-02T05:45:42.967Z,100402.09
2023-01-02T05:48:11.542Z,100389.84
2023-01-02T05:50:39.707Z,100394.22
2023-01-02T05:53:08.097Z,100397.72
2023-01-02T05:55:36.344Z,100389.84
2023-01-02T05:58:04.639Z,100388.06
2023-01-02T06:00:34.323Z,100395.94
2023-01-02T06:03:02.608Z,100398.56
2023-01-02T06:05:30.983Z,100383.72
2023-01-02T06:07:59.160Z,100391.59
2023-01-02T06:10:27.359Z,100402.06
2023-01-02T06:12:55.875Z,100380.22
2023-01-02T06:15:24.405Z,100384.59
2023-01-02T06:17:54.295Z,100381.09
2023-01-02T06:20:22.633Z,100375.84
2023-01-02T06:22:50.958Z,100379.31
2023-01-02T06:25:19.308Z,100386.31
2023-01-02T06:27:47.965Z,100380.19
2023-01-02T06:30:16.672Z,100382.81
2023-01-02T06:32:45.100Z,100383.69
2023-01-02T06:35:14.969Z,100382.81
2023-01-02T06:37:45.329Z,100373.19
2023-01-02T06:40:14.059Z,100384.56
2023-01-02T06:42:44.822Z,100386.28
2023-01-02T06:45:13.984Z,100382.81
2023-01-02T06:47:42.499Z,100390.66
2023-01-02T06:50:11.570Z,100382.81
2023-01-02T06:52:41.227Z,100398.53
2023-01-02T06:55:09.965Z,100400.28
2023-01-02T06:57:38.048Z,100389.78
2023-01-02T07:00:07.034Z,100390.66
2023-01-02T07:02:35.458Z,100382.81
2023-01-02T07:05:03.711Z,100384.53
2023-01-02T07:07:32.233Z,100391.53
2023-01-02T07:10:01.967Z,100388.91
2023-01-02T07:12:30.383Z,100395.06
2023-01-02T07:14:58.785Z,100391.53
2023-01-02T07:17:27.259Z,100400.31
2023-01-02T07:20:00.969Z,100395.06
2023-01-02T07:22:30.224Z,100389.81
2023-01-02T07:24:58.342Z,100387.19
2023-01-02T07:27:29.586Z,100395.06
2023-01-02T07:29:58.085Z,100382.81
2023-01-02T07:32:27.745Z,100384.56
2023-01-02T07:34:56.105Z,100389.84
2023-01-02T07:37:24.337Z,100375.84
2023-01-02T07:39:52.510Z,100361.00
2023-01-02T07:42:20.751Z,100360.13
2023-01-02T07:44:50.577Z,100355.75
2023-01-02T07:47:18.822Z,100352.25
2023-01-02T07:49:47.154Z,100355.75
2023-01-02T07:52:15.419Z,100344.38
2023-01-02T07:54:43.591Z,100343.50
2023-01-02T07:57:12.441Z,100330.41
2023-01-02T07:59:41.150Z,100334.78
2023-01-02T08:02:12.701Z,100333.03
2023-01-02T08:04:41.127Z,100351.38
2023-01-02T08:07:11.396Z,100319.94
2023-01-02T08:09:39.695Z,100343.53
2023-01-02T08:12:07.984Z,100361.88
2023-01-02T08:14:38.098Z,100312.13
2023-01-02T08:17:06.739Z,100352.25
2023-01-02T08:19:36.631Z,100356.59
2023-01-02T08:22:04.981Z,100329.56
2023-01-02T08:24:33.431Z,100334.75
2023-01-02T08:27:01.653Z,100326.03
2023-01-02T08:29:30.005Z,100325.13
2023-01-02T08:31:59.561Z,100324.28
2023-01-02T08:34:29.408Z,100318.16
2023-01-02T08:36:59.175Z,100307.72
2023-01-02T08:42:12.601Z,100307.72
2023-01-02T08:44:40.685Z,100346.09
2023-01-02T08:47:08.800Z,100336.53
2023-01-02T08:49:37.065Z,100333.91
2023-01-02T08:52:07.218Z,100321.69
2023-01-02T08:54:35.930Z,100351.34
2023-01-02T08:57:04.455Z,100342.63
2023-01-02T08:59:33.832Z,100325.16
2023-01-02T09:02:02.087Z,100323.41
2023-01-02T09:04:30.851Z,100328.66
2023-01-02T09:06:59.223Z,100339.09
2023-01-02T09:09:28.772Z,100354.84
2023-01-02T09:11:57.324Z,100374.03
2023-01-02T09:14:25.482Z,100371.41
2023-01-02T09:16:54.185Z,100383.66
2023-01-02T09:19:22.448Z,100350.50
2023-01-02T09:21:50.539Z,100381.06
2023-01-02T09:24:18.870Z,100374.94
2023-01-02T09:26:48.689Z,100363.59
2023-01-02T09:29:17.439Z,100344.38
2023-01-02T09:31:45.781Z,100333.84
2023-01-02T09:34:14.508Z,100360.91
2023-01-02T09:36:42.732Z,100353.97
2023-01-02T09:39:11.323Z,100359.16
2023-01-02T09:41:41.911Z,100375.78
2023-01-02T09:44:19.310Z,100372.25
2023-01-02T09:46:52.078Z,100356.56
2023-01-02T09:49:23.481Z,100361.75
2023-01-02T09:51:55.555Z,100360.03
2023-01-02T09:54:29.717Z,100355.69
2023-01-02T09:57:11.379Z,100368.78
2023-01-02T09:59:48.601Z,100366.16
2023-01-02T10:02:32.410Z,100376.66
2023-01-02T10:05:17.433Z,100360.09
2023-01-02T10:07:53.741Z,100378.41
2023-01-02T10:10:28.270Z,100367.00
2023-01-02T10:13:05.112Z,100348.66
2023-01-02T10:15:36.515Z,100318.13
2023-01-02T10:18:11.281Z,100353.03
2023-01-02T10:20:45.852Z,100339.06
2023-01-02T10:23:19.287Z,100321.56
2023-01-02T10:25:54.317Z,100332.94
2023-01-02T10:28:29.695Z,100344.25
2023-01-02T10:31:07.291Z,100340.78
2023-01-02T10:33:45.712Z,100326.81
2023-01-02T10:36:26.973Z,100298.88
2023-01-02T10:39:11.721Z,100328.53
2023-01-02T10:41:43.452Z,100319.78
2023-01-02T10:44:21.924Z,100315.41
2023-01-02T10:46:52.654Z,100308.41
2023-01-02T10:49:23.765Z,100316.25
2023-01-02T10:52:03.115Z,100311.06
2023-01-02T10:54:32.055Z,100307.53
2023-01-02T10:57:00.491Z,100293.56
2023-01-02T10:59:31.017Z,100298.81
2023-01-02T11:02:04.998Z,100279.63
2023-01-02T11:04:41.286Z,100288.31
2023-01-02T11:07:26.262Z,100284.84
2023-01-02T11:09:57.146Z,100269.13
2023-01-02T11:12:27.701Z,100258.59
2023-01-02T11:15:12.381Z,100270.81
2023-01-02T11:17:47.379Z,100270.81
2023-01-02T11:20:41.198Z,100286.59
2023-01-02T11:23:16.959Z,100290.09
2023-01-02T11:25:47.423Z,100298.75
2023-01-02T11:28:20.376Z,100284.84
2023-01-02T11:30:52.337Z,100310.97
2023-01-02T11:33:29.675Z,100291.78
2023-01-02T11:36:06.656Z,100295.22
2023-01-02T11:38:46.881Z,100243.00
2023-01-02T11:41:49.682Z,100283.09
2023-01-02T11:44:23.841Z,100284.84
2023-01-02T11:46:54.504Z,100269.97
2023-01-02T11:49:28.193Z,100279.56
2023-01-02T11:51:59.619Z,100277.78
2023-01-02T11:54:38.304Z,100276.94
2023-01-02T11:57:18.585Z,100288.31
2023-01-02T11:59:50.197Z,100265.63
2023-01-02T12:02:25.979Z,100269.13
2023-01-02T12:04:56.742Z,100276.06
2023-01-02T12:07:42.500Z,100270.81
2023-01-02T12:10:31.152Z,100274.28
2023-01-02T12:13:18.680Z,100255.91
2023-01-02T12:16:05.366Z,100242.81
2023-01-02T12:18:49.059Z,100246.28
2023-01-02T12:21:24.802Z,100248.06
2023-01-02T12:24:06.077Z,100246.31
2023-01-02T12:26:42.046Z,100227.09
2023-01-02T12:29:46.815Z,100235.78
2023-01-02T12:32:38.709Z,100221.81
2023-01-02T12:35:22.330Z,100225.28
2023-01-02T12:37:56.546Z,100207.78
2023-01-02T12:40:39.000Z,100218.25
2023-01-02T12:43:35.566Z,100199.13
2023-01-02T12:46:17.266Z,100207.00
2023-01-02T12:49:02.643Z,100199.25
2023-01-02T12:51:41.447Z,100217.56
2023-01-02T12:54:31.991Z,100215.81
2023-01-02T12:57:07.988Z,100213.13
2023-01-02T12:59:57.455Z,100200.06
2023-01-02T13:02:42.426Z,100214.91
2023-01-02T13:05:17.790Z,100208.81
2023-01-02T13:07:49.887Z,100214.97
2023-01-02T13:10:23.004Z,100205.44
2023-01-02T13:12:51.605Z,100224.59
2023-01-02T13:15:23.969Z,100241.19
2023-01-02T13:18:02.329Z,100247.31
2023-01-02T13:20:41.463Z,100250.81
2023-01-02T13:23:23.915Z,100243.03
2023-01-02T13:25:57.059Z,100246.53
2023-01-02T13:28:25.663Z,100250.03
2023-01-02T13:33:58.437Z,100245.69
2023-01-02T13:36:29.654Z,100260.50
2023-01-02T13:39:02.503Z,100257.03
2023-01-02T13:41:59.014Z,100265.78
2023-01-02T13:44:36.260Z,100262.28
2023-01-02T13:47:25.874Z,100279.75
2023-01-02T13:50:02.192Z,100274.56
2023-01-02T13:52:33.271Z,100288.47
2023-01-02T13:55:31.367Z,100279.78
2023-01-02T13:58:38.737Z,100274.56
2023-01-02T14:01:53.003Z,100257.94
2023-01-02T14:04:36.458Z,100265.78
2023-01-02T14:07:38.226Z,100276.28
2023-01-02T14:10:41.534Z,100283.25
2023-01-02T14:13:22.470Z,100289.41
2023-01-02T14:16:22.247Z,100297.22
2023-01-02T14:19:25.140Z,100299.00
2023-01-02T14:22:03.267Z,100307.72
2023-01-02T14:24:35.794Z,100299.00
2023-01-02T14:27:06.995Z,100313.81
2023-01-02T14:29:48.985Z,100319.06
2023-01-02T14:32:25.813Z,100332.16
2023-01-02T14:34:56.612Z,100321.72
2023-01-02T14:37:38.317Z,100318.22
2023-01-02T14:40:35.551Z,100314.72
2023-01-02T14:43:24.514Z,100312.97
2023-01-02T14:45:57.453Z,100321.69
2023-01-02T14:48:33.778Z,100319.94
2023-01-02T14:51:06.243Z,100318.16
2023-01-02T14:53:38.255Z,100311.22
2023-01-02T14:56:12.864Z,100314.69
2023-01-02T14:58:43.755Z,100316.41
2023-01-02T15:01:14.665Z,100314.66
2023-01-02T15:04:16.147Z,100300.72
2023-01-02T15:06:46.811Z,100314.69
2023-01-02T15:09:26.965Z,100316.44
2023-01-02T15:12:13.686Z,100316.44
2023-01-02T15:14:44.005Z,100310.31
2023-01-02T15:17:15.310Z,100302.47
2023-01-02T15:19:45.835Z,100325.19
2023-01-02T15:22:17.835Z,100295.50
2023-01-02T15:24:49.569Z,100319.94
2023-01-02T15:27:24.305Z,100319.94
2023-01-02T15:29:55.002Z,100320.81
2023-01-02T15:32:25.840Z,100322.53
2023-01-02T15:35:10.308Z,100319.03
2023-01-02T15:37:43.132Z,100321.69
2023-01-02T15:40:17.528Z,100317.28
2023-01-02T15:43:04.064Z,100312.94
2023-01-02T15:45:33.477Z,100330.41
2023-01-02T15:48:02.399Z,100326.91
2023-01-02T15:50:33.962Z,100329.56
2023-01-02T15:53:04.129Z,100326.97
2023-01-02T15:55:36.602Z,100330.44
2023-01-02T15:58:22.134Z,100325.19
2023-01-02T16:00:53.666Z,100316.47
2023-01-02T16:04:00.648Z,100349.63
2023-01-02T16:06:30.786Z,100338.28
2023-01-02T16:09:01.438Z,100354.88
2023-01-02T16:11:30.147Z,100340.06
2023-01-02T16:14:21.189Z,100363.63
2023-01-02T16:16:53.481Z,100366.22
2023-01-02T16:19:26.380Z,100361.84
2023-01-02T16:22:08.837Z,100370.59
2023-01-02T16:24:46.652Z,100360.09
2023-01-02T16:27:28.472Z,100330.41
2023-01-02T16:30:00.622Z,100347.03
2023-01-02T16:32:38.945Z,100377.56
2023-01-02T16:35:22.980Z,100369.72
2023-01-02T16:38:01.198Z,100379.31
2023-01-02T16:41:03.440Z,100381.06
2023-01-02T16:43:43.154Z,100370.59
2023-01-02T16:46:20.118Z,100388.06
2023-01-02T16:48:50.107Z,100377.59
2023-01-02T16:51:21.759Z,100373.22
2023-01-02T16:53:55.227Z,100377.56
2023-01-02T16:56:27.624Z,100379.31
2023-01-02T16:59:01.510Z,100374.09
2023-01-02T17:01:31.040Z,100381.06
2023-01-02T17:03:59.803Z,100382.81
2023-01-02T17:06:28.104Z,100363.59
2023-01-02T17:08:58.038Z,100378.44
2023-01-02T17:11:26.608Z,100381.94
2023-01-02T17:13:55.040Z,100386.28
2023-01-02T17:16:23.353Z,100388.91
2023-01-02T17:18:51.878Z,100382.78
2023-01-02T17:21:20.499Z,100375.81
2023-01-02T17:23:50.899Z,100374.97
2023-01-02T17:26:21.684Z,100371.47
2023-01-02T17:28:49.961Z,100374.06
2023-01-02T17:31:25.357Z,100371.47
2023-01-02T17:33:54.948Z,100370.59
2023-01-02T17:36:24.132Z,100386.31
2023-01-02T17:38:52.517Z,100395.06
2023-01-02T17:41:24.066Z,100395.03
2023-01-02T17:44:01.641Z,100391.53
2023-01-02T17:49:21.291Z,100381.06
2023-01-02T17:51:49.826Z,100398.53
2023-01-02T17:54:18.520Z,100395.03
2023-01-02T17:56:48.679Z,100396.81
2023-01-02T17:59:19.394Z,100392.41
2023-01-02T18:01:48.842Z,100395.03
2023-01-02T18:04:33.653Z,100385.44
2023-01-02T18:07:12.981Z,100373.22
2023-01-02T18:10:07.938Z,100356.59
2023-01-02T18:12:40.724Z,100359.25
2023-01-02T18:15:19.459Z,100381.94
2023-01-02T18:17:51.719Z,100384.56
2023-01-02T18:20:24.368Z,100372.34
2023-01-02T18:22:53.102Z,100400.28
2023-01-02T18:25:25.653Z,100365.31
2023-01-02T18:27:59.311Z,100391.53
2023-01-02T18:30:28.824Z,100388.03
2023-01-02T18:33:05.146Z,100401.13
2023-01-02T18:35:56.644Z,100397.66
2023-01-02T18:38:30.490Z,100386.28
2023-01-02T18:40:59.120Z,100394.16
2023-01-02T18:43:35.852Z,100385.41
2023-01-02T18:46:13.757Z,100389.78
2023-01-02T18:48:42.036Z,100381.03
2023-01-02T18:51:19.268Z,100395.00
2023-01-02T18:53:51.090Z,100377.56
2023-01-02T18:56:21.392Z,100391.56
2023-01-02T18:59:03.954Z,100374.94
2023-01-02T19:01:37.882Z,100376.69
2023-01-02T19:04:26.618Z,100369.72
2023-01-02T19:06:59.135Z,100378.44
2023-01-02T19:09:37.060Z,100384.56
2023-01-02T19:12:47.251Z,100379.28
2023-01-02T19:15:40.763Z,100379.31
2023-01-02T19:18:35.666Z,100363.59
2023-01-02T19:21:18.768Z,100379.31
2023-01-02T19:23:58.554Z,100377.56
2023-01-02T19:26:34.776Z,100372.34
2023-01-02T19:29:11.903Z,100360.09
2023-01-02T19:31:45.716Z,100363.59
2023-01-02T19:34:41.319Z,100335.66
2023-01-02T19:37:27.933Z,100354.00
2023-01-02T19:40:03.007Z,100350.53
2023-01-02T19:42:32.492Z,100351.41
2023-01-02T19:45:03.020Z,100342.66
2023-01-02T19:47:37.130Z,100351.41
2023-01-02T19:50:11.362Z,100356.66
2023-01-02T19:52:40.861Z,100354.91
2023-01-02T19:55:11.576Z,100351.41
2023-01-02T19:57:39.980Z,100347.91
2023-01-02T20:00:14.668Z,100347.00
2023-01-02T20:02:46.760Z,100339.19
2023-01-02T20:05:21.851Z,100344.44
2023-01-02T20:07:54.193Z,100350.53
2023-01-02T20:10:29.070Z,100342.66
2023-01-02T20:13:01.624Z,100325.19
2023-01-02T20:15:31.222Z,100332.19
2023-01-02T20:18:10.761Z,100340.94
2023-01-02T20:20:39.784Z,100344.41
2023-01-02T20:23:10.729Z,100347.03
2023-01-02T20:25:44.490Z,100349.63
2023-01-02T20:28:13.924Z,100356.59
2023-01-02T20:30:54.224Z,100357.50
2023-01-02T20:33:41.876Z,100367.09
2023-01-02T20:36:13.984Z,100367.09
2023-01-02T20:38:44.555Z,100362.72
2023-01-02T20:41:20.480Z,100374.03
2023-01-02T20:43:50.187Z,100377.53
2023-01-02T20:46:19.211Z,100384.50
2023-01-02T20:48:49.369Z,100380.97
2023-01-02T20:51:18.245Z,100374.78
2023-01-02T20:53:49.557Z,100371.28
2023-01-02T20:56:18.239Z,100367.81
2023-01-02T20:58:47.115Z,100353.00
2023-01-02T21:01:16.171Z,100358.28
2023-01-02T21:03:44.560Z,100354.81
2023-01-02T21:06:14.565Z,100361.81
2023-01-02T21:08:43.167Z,100349.56
2023-01-02T21:11:12.020Z,100349.59
2023-01-02T21:13:40.800Z,100353.09
2023-01-02T21:16:09.314Z,100337.38
2023-01-02T21:18:39.416Z,100342.59
2023-01-02T21:21:10.758Z,100344.34
2023-01-02T21:23:42.704Z,100337.34
2023-01-02T21:26:14.541Z,100343.47
2023-01-02T21:28:44.543Z,100323.41
2023-01-02T21:31:13.659Z,100335.63
2023-01-02T21:33:42.770Z,100333.91
2023-01-02T21:36:11.519Z,100344.38
2023-01-02T21:38:41.549Z,100351.31
2023-01-02T21:41:27.789Z,100343.47
2023-01-02T21:43:56.186Z,100339.13
2023-01-02T21:46:24.543Z,100353.06
2023-01-02T21:48:53.182Z,100353.09
2023-01-02T21:51:21.365Z,100351.31
2023-01-02T21:53:51.388Z,100349.56
2023-01-02T21:56:19.695Z,100361.78
2023-01-02T21:58:48.281Z,100352.19
2023-01-02T22:01:16.613Z,100379.22
2023-01-02T22:03:45.520Z,100380.94
2023-01-02T22:06:13.985Z,100365.22
2023-01-02T22:08:42.325Z,100368.72
2023-01-02T22:11:29.634Z,100375.66
2023-01-02T22:13:58.332Z,100387.94
2023-01-02T22:16:26.688Z,100356.47
2023-01-02T22:18:55.108Z,100398.38
2023-01-02T22:21:23.608Z,100384.41
2023-01-02T22:23:52.600Z,100389.63
2023-01-02T22:26:22.748Z,100395.72
2023-01-02T22:28:51.550Z,100402.69
2023-01-02T22:31:19.783Z,100417.47
2023-01-02T22:33:48.660Z,100418.31
2023-01-02T22:36:16.974Z,100423.50
2023-01-02T22:39:17.470Z,100420.88
2023-01-02T22:41:36.970Z,100422.53
2023-01-02T22:44:07.694Z,100429.53
2023-01-02T22:46:43.248Z,100427.75
2023-01-02T22:49:16.500Z,100439.00
2023-01-02T22:52:07.881Z,100450.28
2023-01-02T22:54:33.775Z,100450.22
2023-01-02T22:57:03.983Z,100453.63
2023-01-02T22:59:32.352Z,100455.41
2023-01-02T23:02:00.639Z,100455.31
2023-01-02T23:04:30.078Z,100470.84
2023-01-02T23:07:23.434Z,100477.72
2023-01-02T23:09:47.957Z,100491.44
2023-01-02T23:12:18.587Z,100493.03
2023-01-02T23:14:46.880Z,100499.00
2023-01-02T23:17:32.885Z,100506.81
2023-01-02T23:20:01.147Z,100513.66
2023-01-02T23:22:30.028Z,100511.81
2023-01-02T23:24:58.228Z,100521.34
2023-01-02T23:27:28.381Z,100528.28
2023-01-02T23:29:56.826Z,100536.22
2023-01-02T23:32:26.581Z,100533.44
2023-01-02T23:34:55.334Z,100552.63
2023-01-02T23:37:25.141Z,100552.59
2023-01-02T23:39:53.677Z,100560.31
2023-01-02T23:42:22.194Z,100568.03
2023-01-02T23:44:52.184Z,100570.63
2023-01-02T23:47:21.063Z,100577.69
2023-01-02T23:49:49.436Z,100584.72
2023-01-02T23:52:18.289Z,100588.00
2023-01-02T23:54:47.518Z,100601.56
2023-01-02T23:57:15.908Z,100607.38
2023-01-02T23:59:44.481Z,100606.03
